sensor_id;sensor_type;location;lat;lon;timestamp;temperature;humidity
13928;DHT22;7036;50.834;4.718;2022-09-09T00:01:46;24.50;56.90
13928;DHT22;7036;50.834;4.718;2022-09-09T00:04:26;24.50;57.10
13928;DHT22;7036;50.834;4.718;2022-09-09T00:09:47;24.50;56.90
13928;DHT22;7036;50.834;4.718;2022-09-09T00:12:59;24.50;56.90
13928;DHT22;7036;50.834;4.718;2022-09-09T00:14:54;24.50;56.90
13928;DHT22;7036;50.834;4.718;2022-09-09T00:17:36;24.50;56.90
13928;DHT22;7036;50.834;4.718;2022-09-09T00:20:09;24.50;56.90
13928;DHT22;7036;50.834;4.718;2022-09-09T00:22:30;24.50;57.10
13928;DHT22;7036;50.834;4.718;2022-09-09T00:25:10;24.50;57.00
13928;DHT22;7036;50.834;4.718;2022-09-09T00:27:45;24.50;56.90
13928;DHT22;7036;50.834;4.718;2022-09-09T00:30:19;24.50;57.10
13928;DHT22;7036;50.834;4.718;2022-09-09T00:32:44;24.40;56.90
13928;DHT22;7036;50.834;4.718;2022-09-09T00:35:18;24.50;56.90
13928;DHT22;7036;50.834;4.718;2022-09-09T00:37:44;24.50;56.90
13928;DHT22;7036;50.834;4.718;2022-09-09T00:40:31;24.50;56.90
13928;DHT22;7036;50.834;4.718;2022-09-09T00:43:08;24.50;56.90
13928;DHT22;7036;50.834;4.718;2022-09-09T00:48:06;24.40;56.90
13928;DHT22;7036;50.834;4.718;2022-09-09T00:50:53;24.40;56.90
13928;DHT22;7036;50.834;4.718;2022-09-09T00:56:09;24.40;56.90
13928;DHT22;7036;50.834;4.718;2022-09-09T00:58:18;24.40;56.90
13928;DHT22;7036;50.834;4.718;2022-09-09T01:01:09;24.40;56.90
13928;DHT22;7036;50.834;4.718;2022-09-09T01:03:34;24.40;56.90
13928;DHT22;7036;50.834;4.718;2022-09-09T01:11:00;24.40;56.90
13928;DHT22;7036;50.834;4.718;2022-09-09T01:13:31;24.40;56.80
13928;DHT22;7036;50.834;4.718;2022-09-09T01:16:01;24.40;56.80
13928;DHT22;7036;50.834;4.718;2022-09-09T01:18:43;24.40;56.80
13928;DHT22;7036;50.834;4.718;2022-09-09T01:26:39;24.40;56.80
13928;DHT22;7036;50.834;4.718;2022-09-09T01:29:09;24.30;56.90
13928;DHT22;7036;50.834;4.718;2022-09-09T01:31:39;24.30;56.80
13928;DHT22;7036;50.834;4.718;2022-09-09T01:34:14;24.40;56.90
13928;DHT22;7036;50.834;4.718;2022-09-09T01:36:48;24.40;56.90
13928;DHT22;7036;50.834;4.718;2022-09-09T01:39:12;24.30;56.80
13928;DHT22;7036;50.834;4.718;2022-09-09T01:41:39;24.40;56.90
13928;DHT22;7036;50.834;4.718;2022-09-09T01:44:06;24.40;56.90
13928;DHT22;7036;50.834;4.718;2022-09-09T01:46:33;24.30;56.80
13928;DHT22;7036;50.834;4.718;2022-09-09T01:49:00;24.30;56.80
13928;DHT22;7036;50.834;4.718;2022-09-09T01:51:27;24.30;56.80
13928;DHT22;7036;50.834;4.718;2022-09-09T01:53:55;24.30;56.80
13928;DHT22;7036;50.834;4.718;2022-09-09T01:59:11;24.30;56.90
13928;DHT22;7036;50.834;4.718;2022-09-09T02:01:57;24.30;56.90
13928;DHT22;7036;50.834;4.718;2022-09-09T02:06:46;24.30;56.80
13928;DHT22;7036;50.834;4.718;2022-09-09T02:09:13;24.30;56.90
13928;DHT22;7036;50.834;4.718;2022-09-09T02:11:40;24.30;56.80
13928;DHT22;7036;50.834;4.718;2022-09-09T02:14:12;24.30;56.80
13928;DHT22;7036;50.834;4.718;2022-09-09T02:16:37;24.30;56.80
13928;DHT22;7036;50.834;4.718;2022-09-09T02:19:18;24.30;56.80
13928;DHT22;7036;50.834;4.718;2022-09-09T02:21:44;24.30;57.30
13928;DHT22;7036;50.834;4.718;2022-09-09T02:24:11;24.30;56.80
13928;DHT22;7036;50.834;4.718;2022-09-09T02:26:39;24.30;56.80
13928;DHT22;7036;50.834;4.718;2022-09-09T02:29:08;24.30;56.90
13928;DHT22;7036;50.834;4.718;2022-09-09T02:31:32;24.20;56.80
13928;DHT22;7036;50.834;4.718;2022-09-09T02:33:59;24.30;56.80
13928;DHT22;7036;50.834;4.718;2022-09-09T02:36:26;24.30;56.80
13928;DHT22;7036;50.834;4.718;2022-09-09T02:38:53;24.30;56.80
13928;DHT22;7036;50.834;4.718;2022-09-09T02:41:20;24.30;56.80
13928;DHT22;7036;50.834;4.718;2022-09-09T02:43:47;24.30;56.80
13928;DHT22;7036;50.834;4.718;2022-09-09T02:46:36;24.20;56.80
13928;DHT22;7036;50.834;4.718;2022-09-09T02:49:03;24.20;56.80
13928;DHT22;7036;50.834;4.718;2022-09-09T02:54:37;24.20;56.80
13928;DHT22;7036;50.834;4.718;2022-09-09T02:56:55;24.20;57.00
13928;DHT22;7036;50.834;4.718;2022-09-09T02:59:22;24.20;56.80
13928;DHT22;7036;50.834;4.718;2022-09-09T03:01:49;24.20;56.80
13928;DHT22;7036;50.834;4.718;2022-09-09T03:04:16;24.20;56.90
13928;DHT22;7036;50.834;4.718;2022-09-09T03:06:43;24.20;56.80
13928;DHT22;7036;50.834;4.718;2022-09-09T03:09:10;24.20;56.80
13928;DHT22;7036;50.834;4.718;2022-09-09T03:11:37;24.20;56.80
13928;DHT22;7036;50.834;4.718;2022-09-09T03:14:04;24.20;56.80
13928;DHT22;7036;50.834;4.718;2022-09-09T03:16:31;24.20;56.80
13928;DHT22;7036;50.834;4.718;2022-09-09T03:18:57;24.20;56.80
13928;DHT22;7036;50.834;4.718;2022-09-09T03:21:24;24.20;56.80
13928;DHT22;7036;50.834;4.718;2022-09-09T03:23:51;24.20;56.80
13928;DHT22;7036;50.834;4.718;2022-09-09T03:26:18;24.20;56.80
13928;DHT22;7036;50.834;4.718;2022-09-09T03:28:45;24.20;56.80
13928;DHT22;7036;50.834;4.718;2022-09-09T03:31:12;24.20;56.80
13928;DHT22;7036;50.834;4.718;2022-09-09T03:33:39;24.20;56.80
13928;DHT22;7036;50.834;4.718;2022-09-09T03:36:06;24.20;56.80
13928;DHT22;7036;50.834;4.718;2022-09-09T03:38:33;24.20;56.80
13928;DHT22;7036;50.834;4.718;2022-09-09T03:41:00;24.20;57.40
13928;DHT22;7036;50.834;4.718;2022-09-09T03:43:27;24.20;56.80
13928;DHT22;7036;50.834;4.718;2022-09-09T03:45:53;24.20;56.80
13928;DHT22;7036;50.834;4.718;2022-09-09T03:48:20;24.20;56.80
13928;DHT22;7036;50.834;4.718;2022-09-09T03:50:48;24.20;56.80
13928;DHT22;7036;50.834;4.718;2022-09-09T03:53:14;24.20;56.80
13928;DHT22;7036;50.834;4.718;2022-09-09T03:55:48;24.20;56.80
13928;DHT22;7036;50.834;4.718;2022-09-09T03:58:14;24.20;56.80
13928;DHT22;7036;50.834;4.718;2022-09-09T04:00:40;24.20;56.80
13928;DHT22;7036;50.834;4.718;2022-09-09T04:03:11;24.20;56.80
13928;DHT22;7036;50.834;4.718;2022-09-09T04:05:34;24.10;56.80
13928;DHT22;7036;50.834;4.718;2022-09-09T04:08:01;24.10;56.80
13928;DHT22;7036;50.834;4.718;2022-09-09T04:10:28;24.20;56.80
13928;DHT22;7036;50.834;4.718;2022-09-09T04:12:55;24.10;56.80
13928;DHT22;7036;50.834;4.718;2022-09-09T04:15:23;24.10;56.80
13928;DHT22;7036;50.834;4.718;2022-09-09T04:17:49;24.10;56.80
13928;DHT22;7036;50.834;4.718;2022-09-09T04:20:16;24.10;56.80
13928;DHT22;7036;50.834;4.718;2022-09-09T04:22:43;24.10;56.80
13928;DHT22;7036;50.834;4.718;2022-09-09T04:25:10;24.10;56.80
13928;DHT22;7036;50.834;4.718;2022-09-09T04:27:37;24.10;56.80
13928;DHT22;7036;50.834;4.718;2022-09-09T04:30:04;24.10;56.80
13928;DHT22;7036;50.834;4.718;2022-09-09T04:32:32;24.10;56.80
13928;DHT22;7036;50.834;4.718;2022-09-09T04:34:58;24.10;56.80
13928;DHT22;7036;50.834;4.718;2022-09-09T04:37:24;24.10;56.80
13928;DHT22;7036;50.834;4.718;2022-09-09T04:39:51;24.10;56.80
13928;DHT22;7036;50.834;4.718;2022-09-09T04:42:18;24.10;56.80
13928;DHT22;7036;50.834;4.718;2022-09-09T04:44:45;24.10;57.30
13928;DHT22;7036;50.834;4.718;2022-09-09T04:47:12;24.10;56.70
13928;DHT22;7036;50.834;4.718;2022-09-09T04:49:39;24.10;56.80
13928;DHT22;7036;50.834;4.718;2022-09-09T04:52:06;24.10;56.80
13928;DHT22;7036;50.834;4.718;2022-09-09T04:54:33;24.10;56.80
13928;DHT22;7036;50.834;4.718;2022-09-09T04:57:00;24.00;56.70
13928;DHT22;7036;50.834;4.718;2022-09-09T04:59:27;24.00;56.70
13928;DHT22;7036;50.834;4.718;2022-09-09T05:01:54;24.00;56.70
13928;DHT22;7036;50.834;4.718;2022-09-09T05:04:21;24.10;56.80
13928;DHT22;7036;50.834;4.718;2022-09-09T05:06:47;24.00;56.70
13928;DHT22;7036;50.834;4.718;2022-09-09T05:09:14;24.00;56.70
13928;DHT22;7036;50.834;4.718;2022-09-09T05:11:41;24.00;56.80
13928;DHT22;7036;50.834;4.718;2022-09-09T05:14:08;24.00;56.70
13928;DHT22;7036;50.834;4.718;2022-09-09T05:16:35;24.00;56.70
13928;DHT22;7036;50.834;4.718;2022-09-09T05:19:02;24.00;56.70
13928;DHT22;7036;50.834;4.718;2022-09-09T05:21:29;24.00;56.70
13928;DHT22;7036;50.834;4.718;2022-09-09T05:23:56;24.00;56.70
13928;DHT22;7036;50.834;4.718;2022-09-09T05:26:23;24.00;56.70
13928;DHT22;7036;50.834;4.718;2022-09-09T05:28:50;24.00;56.70
13928;DHT22;7036;50.834;4.718;2022-09-09T05:31:17;24.00;56.70
13928;DHT22;7036;50.834;4.718;2022-09-09T05:33:45;24.00;57.30
13928;DHT22;7036;50.834;4.718;2022-09-09T05:36:12;24.00;56.70
13928;DHT22;7036;50.834;4.718;2022-09-09T05:38:38;24.00;56.60
13928;DHT22;7036;50.834;4.718;2022-09-09T05:41:05;24.00;56.70
13928;DHT22;7036;50.834;4.718;2022-09-09T05:43:32;24.00;56.70
13928;DHT22;7036;50.834;4.718;2022-09-09T05:46:05;24.00;56.80
13928;DHT22;7036;50.834;4.718;2022-09-09T05:48:30;24.00;56.80
13928;DHT22;7036;50.834;4.718;2022-09-09T05:50:57;24.00;56.70
13928;DHT22;7036;50.834;4.718;2022-09-09T05:53:23;24.00;56.70
13928;DHT22;7036;50.834;4.718;2022-09-09T05:55:50;24.00;56.70
13928;DHT22;7036;50.834;4.718;2022-09-09T05:58:17;24.00;56.70
13928;DHT22;7036;50.834;4.718;2022-09-09T06:00:44;24.00;56.60
13928;DHT22;7036;50.834;4.718;2022-09-09T06:03:11;24.00;56.70
13928;DHT22;7036;50.834;4.718;2022-09-09T06:05:38;24.00;56.70
13928;DHT22;7036;50.834;4.718;2022-09-09T06:08:05;24.00;56.60
13928;DHT22;7036;50.834;4.718;2022-09-09T06:10:32;24.00;56.60
13928;DHT22;7036;50.834;4.718;2022-09-09T06:12:59;24.00;56.50
13928;DHT22;7036;50.834;4.718;2022-09-09T06:15:26;24.00;56.60
13928;DHT22;7036;50.834;4.718;2022-09-09T06:17:56;23.90;56.60
13928;DHT22;7036;50.834;4.718;2022-09-09T06:20:22;23.90;56.50
13928;DHT22;7036;50.834;4.718;2022-09-09T06:22:49;23.90;56.60
13928;DHT22;7036;50.834;4.718;2022-09-09T06:25:16;24.00;56.60
13928;DHT22;7036;50.834;4.718;2022-09-09T06:27:47;24.00;56.60
13928;DHT22;7036;50.834;4.718;2022-09-09T06:30:10;24.00;56.60
13928;DHT22;7036;50.834;4.718;2022-09-09T06:32:37;24.00;56.60
13928;DHT22;7036;50.834;4.718;2022-09-09T06:35:04;24.00;56.60
13928;DHT22;7036;50.834;4.718;2022-09-09T06:37:31;24.00;56.60
13928;DHT22;7036;50.834;4.718;2022-09-09T06:39:58;24.00;56.60
13928;DHT22;7036;50.834;4.718;2022-09-09T06:42:25;24.00;56.60
13928;DHT22;7036;50.834;4.718;2022-09-09T06:44:52;24.00;56.50
13928;DHT22;7036;50.834;4.718;2022-09-09T06:47:19;24.00;56.50
13928;DHT22;7036;50.834;4.718;2022-09-09T06:49:46;24.00;56.50
13928;DHT22;7036;50.834;4.718;2022-09-09T06:52:13;24.00;56.50
13928;DHT22;7036;50.834;4.718;2022-09-09T06:54:40;24.00;56.50
13928;DHT22;7036;50.834;4.718;2022-09-09T06:57:07;24.10;56.50
13928;DHT22;7036;50.834;4.718;2022-09-09T06:59:34;24.10;56.50
13928;DHT22;7036;50.834;4.718;2022-09-09T07:02:01;24.10;56.50
13928;DHT22;7036;50.834;4.718;2022-09-09T07:04:27;24.10;56.70
13928;DHT22;7036;50.834;4.718;2022-09-09T07:06:54;24.10;56.80
13928;DHT22;7036;50.834;4.718;2022-09-09T07:09:21;24.10;56.80
13928;DHT22;7036;50.834;4.718;2022-09-09T07:11:49;24.10;56.70
13928;DHT22;7036;50.834;4.718;2022-09-09T07:14:15;24.10;56.80
13928;DHT22;7036;50.834;4.718;2022-09-09T07:16:43;24.10;56.60
13928;DHT22;7036;50.834;4.718;2022-09-09T07:19:10;24.00;56.60
13928;DHT22;7036;50.834;4.718;2022-09-09T07:21:36;24.00;56.60
13928;DHT22;7036;50.834;4.718;2022-09-09T07:24:03;24.00;56.70
13928;DHT22;7036;50.834;4.718;2022-09-09T07:26:30;24.00;56.60
13928;DHT22;7036;50.834;4.718;2022-09-09T07:28:57;24.00;56.80
13928;DHT22;7036;50.834;4.718;2022-09-09T07:31:30;23.90;56.80
13928;DHT22;7036;50.834;4.718;2022-09-09T07:33:59;23.90;56.80
13928;DHT22;7036;50.834;4.718;2022-09-09T07:36:30;23.90;56.70
13928;DHT22;7036;50.834;4.718;2022-09-09T07:39:00;23.90;56.70
13928;DHT22;7036;50.834;4.718;2022-09-09T07:41:30;23.90;56.90
13928;DHT22;7036;50.834;4.718;2022-09-09T07:43:55;23.90;56.90
13928;DHT22;7036;50.834;4.718;2022-09-09T07:46:23;24.00;56.90
13928;DHT22;7036;50.834;4.718;2022-09-09T07:48:50;24.00;56.80
13928;DHT22;7036;50.834;4.718;2022-09-09T07:51:16;24.00;56.70
13928;DHT22;7036;50.834;4.718;2022-09-09T07:53:43;24.00;56.70
13928;DHT22;7036;50.834;4.718;2022-09-09T07:56:11;24.00;56.60
13928;DHT22;7036;50.834;4.718;2022-09-09T07:58:37;24.00;56.60
13928;DHT22;7036;50.834;4.718;2022-09-09T08:01:10;24.00;56.60
13928;DHT22;7036;50.834;4.718;2022-09-09T08:03:36;24.00;56.50
13928;DHT22;7036;50.834;4.718;2022-09-09T08:06:04;24.00;56.50
13928;DHT22;7036;50.834;4.718;2022-09-09T08:08:30;24.00;56.50
13928;DHT22;7036;50.834;4.718;2022-09-09T08:11:04;24.00;56.40
13928;DHT22;7036;50.834;4.718;2022-09-09T08:13:30;24.00;56.50
13928;DHT22;7036;50.834;4.718;2022-09-09T08:16:03;24.10;56.50
13928;DHT22;7036;50.834;4.718;2022-09-09T08:18:23;24.10;56.40
13928;DHT22;7036;50.834;4.718;2022-09-09T08:20:50;24.00;56.40
13928;DHT22;7036;50.834;4.718;2022-09-09T08:23:18;24.10;56.40
13928;DHT22;7036;50.834;4.718;2022-09-09T08:25:45;24.10;57.20
13928;DHT22;7036;50.834;4.718;2022-09-09T08:28:12;24.00;56.40
13928;DHT22;7036;50.834;4.718;2022-09-09T08:30:39;24.10;56.50
13928;DHT22;7036;50.834;4.718;2022-09-09T08:33:06;24.10;56.50
13928;DHT22;7036;50.834;4.718;2022-09-09T08:35:33;24.10;56.70
13928;DHT22;7036;50.834;4.718;2022-09-09T08:38:00;24.10;56.80
13928;DHT22;7036;50.834;4.718;2022-09-09T08:40:28;24.10;56.60
13928;DHT22;7036;50.834;4.718;2022-09-09T08:42:53;24.20;56.50
13928;DHT22;7036;50.834;4.718;2022-09-09T08:45:34;24.20;56.60
13928;DHT22;7036;50.834;4.718;2022-09-09T08:50:38;24.20;56.60
13928;DHT22;7036;50.834;4.718;2022-09-09T08:55:50;24.20;56.50
13928;DHT22;7036;50.834;4.718;2022-09-09T09:04:00;24.20;56.50
13928;DHT22;7036;50.834;4.718;2022-09-09T09:11:55;24.20;56.60
13928;DHT22;7036;50.834;4.718;2022-09-09T09:14:23;24.20;56.50
13928;DHT22;7036;50.834;4.718;2022-09-09T09:16:54;24.20;56.50
13928;DHT22;7036;50.834;4.718;2022-09-09T09:19:20;24.20;56.70
13928;DHT22;7036;50.834;4.718;2022-09-09T09:22:04;24.20;57.00
13928;DHT22;7036;50.834;4.718;2022-09-09T09:27:14;24.20;56.80
13928;DHT22;7036;50.834;4.718;2022-09-09T09:29:40;24.20;57.00
13928;DHT22;7036;50.834;4.718;2022-09-09T09:32:07;24.20;56.90
13928;DHT22;7036;50.834;4.718;2022-09-09T09:34:34;24.20;57.20
13928;DHT22;7036;50.834;4.718;2022-09-09T09:37:00;24.10;58.30
13928;DHT22;7036;50.834;4.718;2022-09-09T09:39:30;24.10;58.30
13928;DHT22;7036;50.834;4.718;2022-09-09T09:41:54;24.10;58.30
13928;DHT22;7036;50.834;4.718;2022-09-09T09:44:28;24.20;58.30
13928;DHT22;7036;50.834;4.718;2022-09-09T09:46:51;24.20;58.10
13928;DHT22;7036;50.834;4.718;2022-09-09T09:49:18;24.20;58.10
13928;DHT22;7036;50.834;4.718;2022-09-09T09:51:45;24.20;58.10
13928;DHT22;7036;50.834;4.718;2022-09-09T09:54:22;24.20;58.10
13928;DHT22;7036;50.834;4.718;2022-09-09T09:56:48;24.20;58.10
13928;DHT22;7036;50.834;4.718;2022-09-09T10:01:50;24.20;58.10
13928;DHT22;7036;50.834;4.718;2022-09-09T10:04:18;24.20;58.00
13928;DHT22;7036;50.834;4.718;2022-09-09T10:06:44;24.20;58.10
13928;DHT22;7036;50.834;4.718;2022-09-09T10:09:30;24.20;57.90
13928;DHT22;7036;50.834;4.718;2022-09-09T10:12:08;24.20;57.90
13928;DHT22;7036;50.834;4.718;2022-09-09T10:17:08;24.20;58.00
13928;DHT22;7036;50.834;4.718;2022-09-09T10:19:35;24.20;57.30
13928;DHT22;7036;50.834;4.718;2022-09-09T10:25:05;24.20;58.10
13928;DHT22;7036;50.834;4.718;2022-09-09T10:30:29;24.20;58.10
13928;DHT22;7036;50.834;4.718;2022-09-09T10:32:53;24.20;58.00
13928;DHT22;7036;50.834;4.718;2022-09-09T10:48:28;24.20;58.00
13928;DHT22;7036;50.834;4.718;2022-09-09T10:56:17;24.20;58.10
13928;DHT22;7036;50.834;4.718;2022-09-09T10:58:46;24.20;58.10
13928;DHT22;7036;50.834;4.718;2022-09-09T11:01:31;24.30;58.10
13928;DHT22;7036;50.834;4.718;2022-09-09T11:03:59;24.30;58.60
13928;DHT22;7036;50.834;4.718;2022-09-09T11:06:25;24.20;58.40
13928;DHT22;7036;50.834;4.718;2022-09-09T11:08:51;24.30;58.70
13928;DHT22;7036;50.834;4.718;2022-09-09T11:11:29;24.30;58.70
13928;DHT22;7036;50.834;4.718;2022-09-09T11:16:39;24.30;58.40
13928;DHT22;7036;50.834;4.718;2022-09-09T11:21:47;24.40;58.70
13928;DHT22;7036;50.834;4.718;2022-09-09T11:24:16;24.40;58.70
13928;DHT22;7036;50.834;4.718;2022-09-09T11:26:51;24.40;58.60
13928;DHT22;7036;50.834;4.718;2022-09-09T11:38:02;24.30;58.60
13928;DHT22;7036;50.834;4.718;2022-09-09T11:40:24;24.40;58.80
13928;DHT22;7036;50.834;4.718;2022-09-09T11:43:01;24.40;58.80
13928;DHT22;7036;50.834;4.718;2022-09-09T11:45:27;24.40;58.80
13928;DHT22;7036;50.834;4.718;2022-09-09T11:47:54;24.40;58.80
13928;DHT22;7036;50.834;4.718;2022-09-09T11:52:48;24.40;58.80
13928;DHT22;7036;50.834;4.718;2022-09-09T11:55:27;24.40;58.80
13928;DHT22;7036;50.834;4.718;2022-09-09T12:03:05;24.40;58.80
13928;DHT22;7036;50.834;4.718;2022-09-09T12:05:42;24.40;58.80
13928;DHT22;7036;50.834;4.718;2022-09-09T12:08:09;24.40;58.80
13928;DHT22;7036;50.834;4.718;2022-09-09T12:10:35;24.40;58.80
13928;DHT22;7036;50.834;4.718;2022-09-09T12:13:17;24.40;58.70
13928;DHT22;7036;50.834;4.718;2022-09-09T12:15:47;24.40;58.70
13928;DHT22;7036;50.834;4.718;2022-09-09T12:18:15;24.40;58.70
13928;DHT22;7036;50.834;4.718;2022-09-09T12:20:40;24.40;58.70
13928;DHT22;7036;50.834;4.718;2022-09-09T12:28:18;24.40;58.70
13928;DHT22;7036;50.834;4.718;2022-09-09T12:31:05;24.40;58.70
13928;DHT22;7036;50.834;4.718;2022-09-09T12:33:36;24.40;58.60
13928;DHT22;7036;50.834;4.718;2022-09-09T12:36:02;24.50;58.60
13928;DHT22;7036;50.834;4.718;2022-09-09T12:38:36;24.50;58.50
13928;DHT22;7036;50.834;4.718;2022-09-09T12:41:01;24.50;58.60
13928;DHT22;7036;50.834;4.718;2022-09-09T12:43:28;24.50;58.50
13928;DHT22;7036;50.834;4.718;2022-09-09T12:46:03;24.50;58.60
13928;DHT22;7036;50.834;4.718;2022-09-09T12:48:32;24.50;58.60
13928;DHT22;7036;50.834;4.718;2022-09-09T12:50:55;24.50;58.50
13928;DHT22;7036;50.834;4.718;2022-09-09T12:53:23;24.50;58.60
13928;DHT22;7036;50.834;4.718;2022-09-09T12:55:50;24.50;58.50
13928;DHT22;7036;50.834;4.718;2022-09-09T12:58:16;24.50;58.50
13928;DHT22;7036;50.834;4.718;2022-09-09T13:00:52;24.50;58.50
13928;DHT22;7036;50.834;4.718;2022-09-09T13:03:19;24.50;58.40
13928;DHT22;7036;50.834;4.718;2022-09-09T13:05:46;24.50;58.40
13928;DHT22;7036;50.834;4.718;2022-09-09T13:08:13;24.50;58.40
13928;DHT22;7036;50.834;4.718;2022-09-09T13:13:33;24.50;58.30
13928;DHT22;7036;50.834;4.718;2022-09-09T13:15:58;24.50;58.00
13928;DHT22;7036;50.834;4.718;2022-09-09T13:18:25;24.50;58.20
13928;DHT22;7036;50.834;4.718;2022-09-09T13:20:51;24.50;58.20
13928;DHT22;7036;50.834;4.718;2022-09-09T13:23:19;24.50;58.20
13928;DHT22;7036;50.834;4.718;2022-09-09T13:25:58;24.50;58.10
13928;DHT22;7036;50.834;4.718;2022-09-09T13:28:22;24.50;58.20
13928;DHT22;7036;50.834;4.718;2022-09-09T13:31:04;24.50;58.20
13928;DHT22;7036;50.834;4.718;2022-09-09T13:33:31;24.50;58.20
13928;DHT22;7036;50.834;4.718;2022-09-09T13:35:58;24.50;58.20
13928;DHT22;7036;50.834;4.718;2022-09-09T13:38:24;24.50;58.10
13928;DHT22;7036;50.834;4.718;2022-09-09T13:41:00;24.50;58.10
13928;DHT22;7036;50.834;4.718;2022-09-09T13:43:26;24.50;58.20
13928;DHT22;7036;50.834;4.718;2022-09-09T13:45:56;24.50;58.20
13928;DHT22;7036;50.834;4.718;2022-09-09T13:48:22;24.50;58.20
13928;DHT22;7036;50.834;4.718;2022-09-09T13:50:56;24.50;58.20
13928;DHT22;7036;50.834;4.718;2022-09-09T13:53:22;24.50;58.10
13928;DHT22;7036;50.834;4.718;2022-09-09T13:55:49;24.50;58.10
13928;DHT22;7036;50.834;4.718;2022-09-09T13:58:16;24.50;58.10
13928;DHT22;7036;50.834;4.718;2022-09-09T14:00:43;24.50;58.10
13928;DHT22;7036;50.834;4.718;2022-09-09T14:03:10;24.50;58.10
13928;DHT22;7036;50.834;4.718;2022-09-09T14:05:37;24.50;57.90
13928;DHT22;7036;50.834;4.718;2022-09-09T14:08:04;24.50;58.00
13928;DHT22;7036;50.834;4.718;2022-09-09T14:10:30;24.50;58.00
13928;DHT22;7036;50.834;4.718;2022-09-09T14:12:57;24.50;58.50
13928;DHT22;7036;50.834;4.718;2022-09-09T14:15:24;24.50;58.60
13928;DHT22;7036;50.834;4.718;2022-09-09T14:17:51;24.50;58.40
13928;DHT22;7036;50.834;4.718;2022-09-09T14:20:18;24.50;58.30
13928;DHT22;7036;50.834;4.718;2022-09-09T14:22:45;24.50;58.30
13928;DHT22;7036;50.834;4.718;2022-09-09T14:25:12;24.50;58.40
13928;DHT22;7036;50.834;4.718;2022-09-09T14:27:41;24.50;58.40
13928;DHT22;7036;50.834;4.718;2022-09-09T14:30:09;24.50;58.40
13928;DHT22;7036;50.834;4.718;2022-09-09T14:32:36;24.60;58.50
13928;DHT22;7036;50.834;4.718;2022-09-09T14:35:02;24.50;58.20
13928;DHT22;7036;50.834;4.718;2022-09-09T14:37:29;24.50;58.20
13928;DHT22;7036;50.834;4.718;2022-09-09T14:39:57;24.50;58.20
13928;DHT22;7036;50.834;4.718;2022-09-09T14:42:23;24.50;58.20
13928;DHT22;7036;50.834;4.718;2022-09-09T14:44:50;24.50;58.20
13928;DHT22;7036;50.834;4.718;2022-09-09T14:47:17;24.50;58.20
13928;DHT22;7036;50.834;4.718;2022-09-09T14:49:44;24.50;58.10
13928;DHT22;7036;50.834;4.718;2022-09-09T14:52:11;24.50;57.90
13928;DHT22;7036;50.834;4.718;2022-09-09T14:54:38;24.50;58.00
13928;DHT22;7036;50.834;4.718;2022-09-09T14:57:05;24.50;57.80
13928;DHT22;7036;50.834;4.718;2022-09-09T14:59:32;24.50;57.80
13928;DHT22;7036;50.834;4.718;2022-09-09T15:01:59;24.50;57.50
13928;DHT22;7036;50.834;4.718;2022-09-09T15:04:26;24.50;57.80
13928;DHT22;7036;50.834;4.718;2022-09-09T15:06:52;24.50;57.50
13928;DHT22;7036;50.834;4.718;2022-09-09T15:09:19;24.50;57.60
13928;DHT22;7036;50.834;4.718;2022-09-09T15:11:46;24.50;57.60
13928;DHT22;7036;50.834;4.718;2022-09-09T15:14:13;24.50;57.60
13928;DHT22;7036;50.834;4.718;2022-09-09T15:16:40;24.50;57.60
13928;DHT22;7036;50.834;4.718;2022-09-09T15:19:07;24.50;57.40
13928;DHT22;7036;50.834;4.718;2022-09-09T15:21:35;24.50;57.40
13928;DHT22;7036;50.834;4.718;2022-09-09T15:24:02;24.50;57.50
13928;DHT22;7036;50.834;4.718;2022-09-09T15:26:29;24.50;57.50
13928;DHT22;7036;50.834;4.718;2022-09-09T15:28:56;24.50;57.50
13928;DHT22;7036;50.834;4.718;2022-09-09T15:31:23;24.50;57.50
13928;DHT22;7036;50.834;4.718;2022-09-09T15:33:50;24.50;57.50
13928;DHT22;7036;50.834;4.718;2022-09-09T15:36:20;24.50;57.30
13928;DHT22;7036;50.834;4.718;2022-09-09T15:38:46;24.50;57.30
13928;DHT22;7036;50.834;4.718;2022-09-09T15:41:13;24.50;57.20
13928;DHT22;7036;50.834;4.718;2022-09-09T15:43:43;24.50;57.10
13928;DHT22;7036;50.834;4.718;2022-09-09T15:46:22;24.50;57.00
13928;DHT22;7036;50.834;4.718;2022-09-09T15:48:47;24.50;57.20
13928;DHT22;7036;50.834;4.718;2022-09-09T15:51:14;24.50;56.90
13928;DHT22;7036;50.834;4.718;2022-09-09T15:53:41;24.50;57.00
13928;DHT22;7036;50.834;4.718;2022-09-09T15:56:08;24.50;57.00
13928;DHT22;7036;50.834;4.718;2022-09-09T15:58:35;24.50;57.00
13928;DHT22;7036;50.834;4.718;2022-09-09T16:01:05;24.50;56.90
13928;DHT22;7036;50.834;4.718;2022-09-09T16:03:39;24.50;57.00
13928;DHT22;7036;50.834;4.718;2022-09-09T16:06:05;24.50;57.10
13928;DHT22;7036;50.834;4.718;2022-09-09T16:08:32;24.50;57.00
13928;DHT22;7036;50.834;4.718;2022-09-09T16:11:08;24.50;57.10
13928;DHT22;7036;50.834;4.718;2022-09-09T16:13:34;24.50;57.10
13928;DHT22;7036;50.834;4.718;2022-09-09T16:16:00;24.50;57.10
13928;DHT22;7036;50.834;4.718;2022-09-09T16:18:32;24.50;57.00
13928;DHT22;7036;50.834;4.718;2022-09-09T16:20:54;24.50;57.00
13928;DHT22;7036;50.834;4.718;2022-09-09T16:23:21;24.50;56.90
13928;DHT22;7036;50.834;4.718;2022-09-09T16:25:56;24.50;56.90
13928;DHT22;7036;50.834;4.718;2022-09-09T16:28:24;24.60;57.10
13928;DHT22;7036;50.834;4.718;2022-09-09T16:30:50;24.50;57.00
13928;DHT22;7036;50.834;4.718;2022-09-09T16:33:17;24.50;56.90
13928;DHT22;7036;50.834;4.718;2022-09-09T16:35:44;24.50;56.90
13928;DHT22;7036;50.834;4.718;2022-09-09T16:38:11;24.50;56.80
13928;DHT22;7036;50.834;4.718;2022-09-09T16:40:38;24.50;57.40
13928;DHT22;7036;50.834;4.718;2022-09-09T16:43:05;24.50;56.70
13928;DHT22;7036;50.834;4.718;2022-09-09T16:45:33;24.50;57.20
13928;DHT22;7036;50.834;4.718;2022-09-09T16:47:59;24.50;56.70
13928;DHT22;7036;50.834;4.718;2022-09-09T16:50:26;24.50;56.60
13928;DHT22;7036;50.834;4.718;2022-09-09T16:52:53;24.50;56.60
13928;DHT22;7036;50.834;4.718;2022-09-09T16:55:20;24.40;56.60
13928;DHT22;7036;50.834;4.718;2022-09-09T16:57:47;24.40;56.50
13928;DHT22;7036;50.834;4.718;2022-09-09T17:00:14;24.40;56.60
13928;DHT22;7036;50.834;4.718;2022-09-09T17:02:41;24.40;56.70
13928;DHT22;7036;50.834;4.718;2022-09-09T17:05:08;24.40;56.80
13928;DHT22;7036;50.834;4.718;2022-09-09T17:07:35;24.40;56.90
13928;DHT22;7036;50.834;4.718;2022-09-09T17:10:02;24.40;57.00
13928;DHT22;7036;50.834;4.718;2022-09-09T17:12:29;24.40;57.10
13928;DHT22;7036;50.834;4.718;2022-09-09T17:14:55;24.40;57.20
13928;DHT22;7036;50.834;4.718;2022-09-09T17:17:23;24.40;57.30
13928;DHT22;7036;50.834;4.718;2022-09-09T17:19:50;24.40;57.40
13928;DHT22;7036;50.834;4.718;2022-09-09T17:22:18;24.30;57.60
13928;DHT22;7036;50.834;4.718;2022-09-09T17:24:45;24.30;58.00
13928;DHT22;7036;50.834;4.718;2022-09-09T17:27:12;24.30;58.20
13928;DHT22;7036;50.834;4.718;2022-09-09T17:29:39;24.30;58.30
13928;DHT22;7036;50.834;4.718;2022-09-09T17:32:06;24.20;58.40
13928;DHT22;7036;50.834;4.718;2022-09-09T17:34:33;24.30;58.40
13928;DHT22;7036;50.834;4.718;2022-09-09T17:36:59;24.30;58.30